Galatia, New York
Current Conditions -  °F | °C
As of 11:15 PM on Wednesday 22 Oct 2014 (Local Time) from KN03 Reporting Station
Overcast Overcast  
Wind Chill: 45°   Ceiling: 1000
Heat Index: 45°   Visibility: 10mi
Dew Point: 43°   Wind: 0mph
Humidity: 93%   Direction: NA
Pressure: 30.06"   Gusts: NA
Location:  42.4596°N, 76.0658°W
Report Text: KN03 230315Z AUTO 00000KT 10SM BKN010 BKN017 OVC075 07/06 A3006 RMK AO2
Loading
Personal Weather Stations






























Interactive Weather Map New forecast layout! Learn more

10-Day Weather Forecast

Advertisements
Track Severe Weather on mobile